Time;durP1;ratioP1;P1;durP2;ratioP2;P2;SDS_P1;SDS_P2;PMS_P1;PMS_P2;Temp;Humidity;BMP_temperature;BMP_pressure;BME280_temperature;BME280_humidity;BME280_pressure;Samples;Min_cycle;Max_cycle;Signal;HPM_P1;HPM_P2
2021/04/29 00:00:26;;;;;;;33.58;21.67;;;;;;;12.97;77.93;99585.28;5074787;28;20036;-74
2021/04/29 00:02:52;;;;;;;30.17;21.02;;;;;;;12.94;77.78;99573.97;5093210;28;20162;-74
2021/04/29 00:05:21;;;;;;;36.38;23.50;;;;;;;12.90;77.78;99562.66;5042051;28;20028;-73
2021/04/29 00:07:47;;;;;;;37.65;23.52;;;;;;;13.03;77.96;99584.81;5074990;28;20435;-73
2021/04/29 00:10:17;;;;;;;37.35;23.30;;;;;;;12.86;78.65;99578.13;5093460;28;20416;-73
2021/04/29 00:12:43;;;;;;;36.72;23.80;;;;;;;12.89;78.92;99577.88;5093338;28;20028;-73
2021/04/29 00:15:12;;;;;;;40.67;24.35;;;;;;;12.86;79.15;99587.97;5093134;28;20031;-73
2021/04/29 00:17:37;;;;;;;37.10;23.75;;;;;;;12.81;79.21;99558.03;5092836;28;20048;-73
2021/04/29 00:20:08;;;;;;;41.30;25.20;;;;;;;12.79;79.59;99584.94;5092971;28;20035;-73
2021/04/29 00:22:34;;;;;;;36.03;24.63;;;;;;;12.84;79.53;99581.91;5093590;28;20034;-76
2021/04/29 00:24:59;;;;;;;44.00;26.38;;;;;;;12.84;79.23;99573.88;5074867;28;20115;-75
2021/04/29 00:27:25;;;;;;;41.75;26.33;;;;;;;12.83;79.47;99577.50;5058830;28;20032;-74
2021/04/29 00:29:50;;;;;;;37.92;25.95;;;;;;;12.74;79.75;99568.41;5075065;28;20489;-74
2021/04/29 00:32:16;;;;;;;38.28;25.33;;;;;;;12.88;80.01;99592.22;5074989;28;20032;-73
2021/04/29 00:34:41;;;;;;;43.05;27.65;;;;;;;12.54;80.31;99529.84;5093165;28;20029;-73
2021/04/29 00:37:06;;;;;;;38.83;26.98;;;;;;;12.61;80.11;99549.78;5092434;28;20439;-74
2021/04/29 00:39:32;;;;;;;42.10;27.50;;;;;;;12.81;80.63;99587.47;5075045;28;20047;-75
2021/04/29 00:41:57;;;;;;;44.58;27.67;;;;;;;12.74;80.50;99567.53;5092548;28;20495;-74
2021/04/29 00:44:23;;;;;;;42.15;27.98;;;;;;;12.72;80.40;99564.13;5075037;28;20076;-74
2021/04/29 00:46:48;;;;;;;43.17;28.00;;;;;;;12.69;80.67;99562.56;5074640;28;20458;-75
2021/04/29 00:49:16;;;;;;;40.40;26.38;;;;;;;12.76;80.81;99573.63;5057979;28;20074;-76
2021/04/29 00:51:41;;;;;;;43.08;27.58;;;;;;;12.79;80.89;99570.69;5074701;28;20052;-76
2021/04/29 00:54:06;;;;;;;43.60;27.13;;;;;;;12.83;80.29;99556.09;5074670;28;20097;-73
2021/04/29 00:56:32;;;;;;;43.72;27.88;;;;;;;12.75;80.56;99551.38;5074791;28;20028;-75
2021/04/29 00:58:57;;;;;;;45.70;30.48;;;;;;;12.70;81.19;99555.38;5057841;28;20067;-75
2021/04/29 01:01:24;;;;;;;45.25;28.52;;;;;;;12.88;80.78;99572.63;5074723;28;20044;-74
2021/04/29 01:04:08;;;;;;;49.00;30.45;;;;;;;12.83;81.11;99577.50;5092284;28;20485;-76
2021/04/29 01:06:39;;;;;;;48.92;29.65;;;;;;;12.85;80.86;99564.88;5092682;28;20477;-75
2021/04/29 01:09:20;;;;;;;48.70;29.90;;;;;;;12.83;80.65;99574.81;5092525;28;20038;-73
2021/04/29 01:11:53;;;;;;;56.92;32.38;;;;;;;12.74;80.78;99540.75;5074746;28;20032;-73
2021/04/29 01:14:19;;;;;;;54.08;33.45;;;;;;;12.78;81.23;99569.00;5096728;28;20089;-73
2021/04/29 01:16:45;;;;;;;50.45;30.65;;;;;;;12.67;82.06;99560.97;5078358;28;20052;-73
2021/04/29 01:19:13;;;;;;;56.40;33.80;;;;;;;12.68;82.06;99557.34;5078357;28;20028;-73
2021/04/29 01:21:40;;;;;;;55.03;32.22;;;;;;;12.81;81.53;99568.75;5100634;28;20050;-74
2021/04/29 01:24:15;;;;;;;53.83;32.35;;;;;;;12.64;81.60;99534.44;5098790;28;20032;-73
2021/04/29 01:26:55;;;;;;;59.45;34.13;;;;;;;12.71;81.85;99562.44;5079799;28;20066;-73
2021/04/29 01:29:30;;;;;;;56.78;33.25;;;;;;;12.68;82.23;99568.03;5097245;28;20026;-73
2021/04/29 01:31:57;;;;;;;63.22;34.97;;;;;;;12.35;82.31;99508.19;5096147;28;20028;-74
2021/04/29 01:34:25;;;;;;;55.72;34.17;;;;;;;12.59;82.21;99543.72;5096209;28;20036;-73
2021/04/29 01:36:52;;;;;;;62.97;36.38;;;;;;;12.66;82.59;99565.47;5077860;28;20035;-76
2021/04/29 01:39:18;;;;;;;57.33;34.58;;;;;;;12.66;82.51;99564.63;5096164;28;20036;-73
2021/04/29 01:41:47;;;;;;;57.90;34.08;;;;;;;12.59;82.44;99561.59;5096177;28;20058;-73
2021/04/29 01:44:13;;;;;;;61.38;34.45;;;;;;;12.59;82.63;99565.09;5095593;28;20115;-77
2021/04/29 01:46:40;;;;;;;56.58;34.78;;;;;;;12.63;82.68;99564.84;5095826;28;20032;-76
2021/04/29 01:49:09;;;;;;;60.13;33.90;;;;;;;12.54;83.43;99566.44;5095742;28;20032;-77
2021/04/29 01:51:36;;;;;;;59.13;34.03;;;;;;;12.53;83.68;99559.38;5095920;28;20028;-77
2021/04/29 01:54:03;;;;;;;53.92;32.88;;;;;;;12.53;83.62;99562.91;5095631;28;20040;-76
2021/04/29 01:56:29;;;;;;;56.97;34.97;;;;;;;12.47;83.93;99558.06;5095893;28;20085;-77
2021/04/29 01:58:55;;;;;;;57.83;34.85;;;;;;;12.55;83.98;99562.81;5095541;28;20101;-78
2021/04/29 02:01:21;;;;;;;58.63;32.55;;;;;;;12.64;83.67;99569.22;5095798;28;20222;-75
2021/04/29 02:03:46;;;;;;;58.13;34.03;;;;;;;12.55;83.76;99566.34;5095942;28;20036;-76
2021/04/29 02:06:12;;;;;;;58.55;34.65;;;;;;;12.60;83.66;99563.28;5077377;28;20539;-77
2021/04/29 02:08:37;;;;;;;59.03;34.90;;;;;;;12.61;83.51;99555.13;5095407;28;20374;-74
2021/04/29 02:11:04;;;;;;;55.80;32.88;;;;;;;12.70;83.09;99555.38;5076982;28;20116;-75
2021/04/29 02:13:33;;;;;;;56.10;34.10;;;;;;;12.63;83.72;99562.19;5095116;28;20366;-74
2021/04/29 02:16:08;;;;;;;59.00;34.03;;;;;;;12.46;83.97;99539.47;5094499;28;20036;-76
2021/04/29 02:18:35;;;;;;;58.33;34.10;;;;;;;12.47;83.65;99535.81;5095491;28;20496;-75
2021/04/29 02:21:01;;;;;;;62.40;35.42;;;;;;;12.34;84.29;99538.59;5076763;28;20035;-74
2021/04/29 02:23:28;;;;;;;59.50;36.33;;;;;;;12.51;84.04;99556.84;5077014;28;20036;-73
2021/04/29 02:25:56;;;;;;;63.55;36.35;;;;;;;12.42;84.41;99548.69;5095149;28;20457;-80
2021/04/29 02:28:23;;;;;;;60.90;36.28;;;;;;;12.37;84.40;99537.53;5095064;28;20031;-74
2021/04/29 02:30:50;;;;;;;60.95;36.13;;;;;;;12.55;83.94;99552.97;5094755;28;20036;-74
2021/04/29 02:33:17;;;;;;;57.08;34.08;;;;;;;12.56;84.24;99556.50;5077029;28;20476;-75
2021/04/29 02:35:45;;;;;;;61.72;35.08;;;;;;;12.32;84.68;99532.50;5094772;28;20047;-76
2021/04/29 02:38:15;;;;;;;61.63;35.67;;;;;;;12.46;84.65;99559.03;5076633;28;20115;-76
2021/04/29 02:40:41;;;;;;;60.55;35.40;;;;;;;12.47;84.86;99560.75;5094771;28;20043;-74
2021/04/29 02:43:11;;;;;;;63.38;36.55;;;;;;;12.48;84.67;99561.59;5094618;28;20032;-75
2021/04/29 02:45:36;;;;;;;59.25;35.15;;;;;;;12.43;85.03;99563.75;5076840;28;20036;-73
2021/04/29 02:48:03;;;;;;;61.88;35.47;;;;;;;12.45;84.85;99557.34;5094183;28;20382;-74
2021/04/29 02:50:28;;;;;;;61.95;35.35;;;;;;;12.52;84.47;99558.53;5094879;28;20036;-74
2021/04/29 02:52:55;;;;;;;64.13;35.83;;;;;;;12.37;84.74;99541.03;5095073;28;20038;-74
2021/04/29 02:55:22;;;;;;;61.80;35.30;;;;;;;12.41;84.80;99553.19;5094514;28;20028;-74
2021/04/29 02:57:48;;;;;;;61.65;35.42;;;;;;;12.19;84.67;99507.72;5094646;28;20032;-82
2021/04/29 03:00:16;;;;;;;62.15;35.75;;;;;;;12.50;84.70;99559.63;5094325;28;20032;-81
2021/04/29 03:02:42;;;;;;;61.67;34.95;;;;;;;12.43;84.53;99553.06;5094732;28;20039;-74
2021/04/29 03:05:09;;;;;;;63.75;35.70;;;;;;;12.20;84.43;99504.94;5075969;28;20054;-75
2021/04/29 03:07:40;;;;;;;63.40;35.80;;;;;;;12.49;84.08;99555.25;5094710;28;20059;-74
2021/04/29 03:10:07;;;;;;;61.72;34.40;;;;;;;12.40;83.91;99543.47;5093780;28;20527;-74
2021/04/29 03:12:33;;;;;;;64.75;36.47;;;;;;;12.36;84.24;99547.38;5094061;28;20504;-73
2021/04/29 03:14:58;;;;;;;68.53;37.10;;;;;;;12.49;84.33;99572.16;5093966;28;20060;-73
2021/04/29 03:17:24;;;;;;;65.95;36.50;;;;;;;12.43;84.20;99550.38;5075905;28;20538;-74
2021/04/29 03:19:51;;;;;;;68.03;37.20;;;;;;;12.48;84.75;99570.47;5093887;28;20093;-74
2021/04/29 03:22:16;;;;;;;70.10;37.97;;;;;;;12.29;85.22;99546.13;5075911;28;20044;-74
2021/04/29 03:24:42;;;;;;;74.30;39.58;;;;;;;12.52;85.11;99573.72;5075724;28;20383;-74
2021/04/29 03:27:07;;;;;;;73.53;40.15;;;;;;;12.49;85.49;99569.50;5076005;28;20036;-73
2021/04/29 03:29:33;;;;;;;72.32;38.90;;;;;;;12.37;85.79;99567.78;5093938;28;20059;-73
2021/04/29 03:32:00;;;;;;;75.25;41.70;;;;;;;12.27;86.07;99548.09;5093630;28;20063;-76
2021/04/29 03:34:25;;;;;;;75.70;41.70;;;;;;;12.40;86.05;99569.34;5093610;28;20063;-73
2021/04/29 03:36:51;;;;;;;74.18;40.78;;;;;;;12.09;86.40;99517.44;5093272;28;20036;-74
2021/04/29 03:39:16;;;;;;;76.78;42.28;;;;;;;12.42;86.64;99568.25;5059069;28;20044;-74
2021/04/29 03:41:41;;;;;;;82.38;42.22;;;;;;;12.41;86.82;99569.22;5093802;28;20068;-74
2021/04/29 03:44:07;;;;;;;80.97;43.30;;;;;;;12.43;86.35;99563.75;5075282;28;20032;-74
2021/04/29 03:46:32;;;;;;;79.20;41.90;;;;;;;12.44;86.72;99565.47;5093842;28;20441;-74
2021/04/29 03:48:58;;;;;;;77.07;42.00;;;;;;;12.50;86.72;99565.84;5093810;28;20070;-75
2021/04/29 03:51:23;;;;;;;79.03;43.83;;;;;;;12.42;87.05;99556.72;5093277;28;20039;-75
2021/04/29 03:53:49;;;;;;;78.18;41.15;;;;;;;12.48;86.63;99562.44;5075666;28;20047;-77
2021/04/29 03:56:14;;;;;;;81.13;42.85;;;;;;;12.43;87.12;99566.44;5075361;28;20055;-75
2021/04/29 03:58:40;;;;;;;74.28;40.00;;;;;;;12.43;86.38;99556.59;5076056;28;20028;-77
2021/04/29 04:01:05;;;;;;;74.60;40.05;;;;;;;12.41;86.57;99565.72;5093037;28;20028;-77
2021/04/29 04:03:31;;;;;;;80.75;41.20;;;;;;;12.37;86.75;99559.75;5093588;28;20036;-75
2021/04/29 04:05:56;;;;;;;77.95;39.63;;;;;;;12.44;86.78;99562.78;5093700;28;20377;-75
2021/04/29 04:08:21;;;;;;;81.85;41.47;;;;;;;12.37;87.18;99562.44;5075132;28;20035;-73
2021/04/29 04:10:47;;;;;;;81.85;43.30;;;;;;;12.25;87.53;99539.31;5093216;28;20028;-75
2021/04/29 04:13:20;;;;;;;91.15;42.20;;;;;;;12.41;87.54;99555.88;5093346;28;20047;-76
2021/04/29 04:15:46;;;;;;;88.03;43.90;;;;;;;12.29;88.20;99571.06;5093185;28;20120;-77
2021/04/29 04:18:12;;;;;;;87.00;42.05;;;;;;;12.32;89.07;99577.97;5093065;28;20096;-75
2021/04/29 04:20:38;;;;;;;89.20;44.15;;;;;;;12.30;89.44;99569.22;5092935;28;20534;-73
2021/04/29 04:23:04;;;;;;;84.28;41.97;;;;;;;12.16;90.03;99562.28;5092968;28;20036;-72
2021/04/29 04:25:30;;;;;;;85.40;42.70;;;;;;;12.36;89.94;99568.75;5093013;28;20039;-71
2021/04/29 04:27:55;;;;;;;81.75;41.67;;;;;;;12.20;90.39;99554.88;5075169;28;20028;-71
2021/04/29 04:30:21;;;;;;;76.22;40.38;;;;;;;12.20;90.92;99574.44;5092822;28;20267;-75
2021/04/29 04:32:46;;;;;;;75.97;39.75;;;;;;;11.90;91.33;99537.56;5075109;28;20051;-74
2021/04/29 04:35:12;;;;;;;86.25;41.67;;;;;;;12.11;92.28;99582.31;5082132;28;20074;-74
2021/04/29 04:37:38;;;;;;;75.47;39.90;;;;;;;12.15;92.19;99570.41;5077320;28;20036;-72
2021/04/29 04:40:04;;;;;;;77.72;37.97;;;;;;;12.17;92.23;99582.72;5058375;28;20047;-75
2021/04/29 04:42:30;;;;;;;75.47;39.25;;;;;;;12.08;92.18;99574.53;5075574;28;20046;-74
2021/04/29 04:44:55;;;;;;;75.85;39.03;;;;;;;12.14;92.35;99574.91;5093172;28;20028;-74
2021/04/29 04:47:21;;;;;;;70.28;36.78;;;;;;;11.80;91.40;99525.03;5060744;28;20034;-74
2021/04/29 04:49:46;;;;;;;79.38;37.95;;;;;;;12.07;92.18;99567.50;5096883;28;20470;-75
2021/04/29 04:52:12;;;;;;;70.43;36.50;;;;;;;11.93;91.86;99544.50;5061442;28;20458;-75
2021/04/29 04:54:37;;;;;;;68.70;34.72;;;;;;;11.73;91.37;99506.75;5062030;28;20071;-73
2021/04/29 04:57:03;;;;;;;70.78;36.05;;;;;;;12.01;91.31;99561.63;5096949;28;20553;-75
2021/04/29 04:59:29;;;;;;;71.97;36.92;;;;;;;11.98;91.08;99575.25;5096548;28;20059;-73
2021/04/29 05:01:54;;;;;;;69.00;35.85;;;;;;;12.00;91.29;99567.09;5061777;28;20481;-74
2021/04/29 05:04:24;;;;;;;70.15;33.83;;;;;;;12.09;90.24;99558.38;5078456;28;20384;-73
2021/04/29 05:06:49;;;;;;;69.85;33.92;;;;;;;12.24;89.69;99556.31;5079249;28;20040;-73
2021/04/29 05:09:16;;;;;;;69.93;34.17;;;;;;;12.15;89.99;99552.53;5078233;28;20064;-71
2021/04/29 05:11:42;;;;;;;69.00;36.20;;;;;;;12.13;90.06;99549.13;5096550;28;20408;-72
2021/04/29 05:14:07;;;;;;;71.32;35.78;;;;;;;12.11;89.54;99548.41;5061515;28;20043;-75
2021/04/29 05:16:32;;;;;;;73.65;37.25;;;;;;;11.94;89.40;99541.69;5096788;28;20389;-76
2021/04/29 05:18:59;;;;;;;77.10;36.50;;;;;;;12.12;89.35;99571.50;5096599;28;20392;-75
2021/04/29 05:21:24;;;;;;;68.22;34.28;;;;;;;12.07;89.12;99572.84;5096214;28;20139;-75
2021/04/29 05:23:51;;;;;;;69.57;34.97;;;;;;;12.10;88.87;99576.13;5096496;28;20105;-77
2021/04/29 05:26:17;;;;;;;74.20;35.25;;;;;;;11.98;89.03;99569.91;5078234;28;20044;-80
2021/04/29 05:28:42;;;;;;;69.07;34.90;;;;;;;11.94;89.32;99571.09;5096600;28;20526;-80
2021/04/29 05:31:08;;;;;;;69.90;35.33;;;;;;;11.87;89.11;99544.94;5077821;28;20036;-80
2021/04/29 05:33:33;;;;;;;64.90;33.80;;;;;;;12.03;88.61;99562.38;5096336;28;20047;-80
2021/04/29 05:35:59;;;;;;;65.80;33.50;;;;;;;12.03;88.26;99551.69;5095973;28;20032;-80
2021/04/29 05:38:24;;;;;;;66.10;33.15;;;;;;;12.01;87.83;99528.72;5095619;28;20099;-81
2021/04/29 05:40:49;;;;;;;68.97;36.00;;;;;;;12.09;88.14;99557.53;5078275;28;20101;-81
2021/04/29 05:43:15;;;;;;;71.72;36.05;;;;;;;12.28;87.69;99573.84;5095671;28;20036;-80
2021/04/29 05:45:41;;;;;;;69.05;34.42;;;;;;;12.23;87.71;99562.66;5077752;28;20047;-80
2021/04/29 05:48:07;;;;;;;69.28;35.70;;;;;;;12.14;87.28;99566.03;5095911;28;20032;-74
2021/04/29 05:50:32;;;;;;;64.35;34.05;;;;;;;12.03;87.26;99540.97;5087844;28;20040;-80
2021/04/29 05:52:58;;;;;;;64.32;32.92;;;;;;;12.11;86.72;99547.56;5077368;28;20051;-77
2021/04/29 05:55:23;;;;;;;68.60;33.97;;;;;;;12.24;86.43;99567.03;5076639;28;20073;-78
2021/04/29 05:57:49;;;;;;;59.45;32.00;;;;;;;12.39;86.14;99568.50;5059810;28;20039;-79
2021/04/29 06:00:15;;;;;;;60.63;32.50;;;;;;;12.40;85.98;99575.56;5094690;28;20038;-76
2021/04/29 06:02:41;;;;;;;57.95;32.60;;;;;;;12.24;85.75;99548.31;5060300;28;20062;-74
2021/04/29 06:05:06;;;;;;;59.42;33.13;;;;;;;12.38;85.85;99564.13;5094828;28;20028;-76
2021/04/29 06:07:32;;;;;;;58.15;31.45;;;;;;;12.49;84.77;99564.13;5094295;28;20032;-75
2021/04/29 06:09:57;;;;;;;57.40;32.55;;;;;;;12.41;84.50;99547.84;5095542;28;20032;-77
2021/04/29 06:12:23;;;;;;;54.63;32.28;;;;;;;12.23;84.47;99530.56;5094578;28;20119;-77
2021/04/29 06:14:48;;;;;;;59.78;32.20;;;;;;;12.47;84.29;99565.25;5094718;28;20044;-77
2021/04/29 06:17:14;;;;;;;64.82;31.52;;;;;;;12.52;84.67;99574.59;5076202;28;20098;-77
2021/04/29 06:19:40;;;;;;;54.55;29.65;;;;;;;12.52;83.84;99552.34;5051795;28;20040;-75
2021/04/29 06:22:05;;;;;;;56.95;31.65;;;;;;;12.59;84.34;99581.16;5074671;28;20032;-73
2021/04/29 06:24:31;;;;;;;58.75;31.17;;;;;;;12.68;83.54;99584.09;5074215;28;20818;-77
2021/04/29 06:26:56;;;;;;;53.83;30.80;;;;;;;12.72;82.73;99590.88;5056028;28;20439;-75
2021/04/29 06:29:22;;;;;;;55.70;29.85;;;;;;;12.74;82.60;99592.50;5039706;28;20067;-79
2021/04/29 06:31:47;;;;;;;54.60;29.90;;;;;;;12.33;82.86;99536.88;5056160;28;20043;-77
2021/04/29 06:34:13;;;;;;;57.17;30.08;;;;;;;12.66;83.42;99591.38;5074277;28;20115;-81
2021/04/29 06:36:40;;;;;;;57.25;28.98;;;;;;;12.70;82.86;99585.66;5073673;28;20070;-75
2021/04/29 06:39:06;;;;;;;54.63;29.17;;;;;;;12.66;83.01;99586.88;5056090;28;20025;-75
2021/04/29 06:41:32;;;;;;;52.83;29.90;;;;;;;12.56;83.42;99581.41;5055977;28;20173;-76
2021/04/29 06:43:58;;;;;;;50.28;28.17;;;;;;;12.59;83.02;99565.09;5074064;28;20082;-78
2021/04/29 06:46:23;;;;;;;50.83;28.17;;;;;;;12.64;82.03;99566.56;5073733;28;20165;-77
2021/04/29 06:48:49;;;;;;;46.17;26.73;;;;;;;12.82;81.69;99586.50;5039914;28;20037;-81
2021/04/29 06:51:14;;;;;;;50.05;27.85;;;;;;;12.75;81.58;99574.59;5093726;28;20063;-80
2021/04/29 06:53:40;;;;;;;48.47;26.80;;;;;;;12.76;81.22;99592.34;5059364;28;20028;-77
2021/04/29 06:56:05;;;;;;;50.80;26.92;;;;;;;12.75;81.39;99604.88;5093625;28;20381;-77
2021/04/29 06:58:33;;;;;;;47.70;26.27;;;;;;;12.77;81.10;99583.34;5093445;28;20492;-77
2021/04/29 07:00:59;;;;;;;46.33;25.85;;;;;;;12.87;81.15;99592.34;5059470;28;20048;-74
2021/04/29 07:03:24;;;;;;;47.40;25.52;;;;;;;12.97;80.68;99593.31;5075278;28;20043;-75
2021/04/29 07:05:50;;;;;;;48.15;26.77;;;;;;;12.86;80.65;99590.66;5093547;28;20028;-75
2021/04/29 07:08:15;;;;;;;47.63;24.88;;;;;;;12.76;80.30;99576.31;5058575;28;20058;-80
2021/04/29 07:10:41;;;;;;;47.80;25.48;;;;;;;12.63;80.23;99559.50;5074243;28;20481;-74
2021/04/29 07:13:06;;;;;;;48.33;25.42;;;;;;;12.93;80.53;99604.38;5093438;28;20101;-75
2021/04/29 07:15:32;;;;;;;46.95;26.63;;;;;;;12.73;81.03;99589.91;5092400;28;20032;-76
2021/04/29 07:18:00;;;;;;;45.70;26.38;;;;;;;12.88;80.50;99604.75;5075333;28;20044;-75
2021/04/29 07:20:25;;;;;;;45.35;25.52;;;;;;;12.87;80.99;99613.75;5079586;28;20080;-78
2021/04/29 07:22:51;;;;;;;48.38;25.70;;;;;;;12.86;80.72;99606.72;5055422;28;20056;-75
2021/04/29 07:25:16;;;;;;;45.83;24.98;;;;;;;12.83;81.17;99605.09;5072477;28;20082;-78
2021/04/29 07:27:42;;;;;;;52.33;28.60;;;;;;;12.94;81.32;99611.47;5057968;28;20036;-80
2021/04/29 07:30:10;;;;;;;53.10;27.80;;;;;;;12.88;81.30;99608.28;5041191;28;20043;-75
2021/04/29 07:32:35;;;;;;;52.97;28.05;;;;;;;12.79;81.53;99589.44;5072686;28;20028;-77
2021/04/29 07:35:03;;;;;;;53.70;28.25;;;;;;;12.93;81.52;99602.53;5072877;28;20044;-78
2021/04/29 07:37:29;;;;;;;54.60;28.92;;;;;;;12.80;81.92;99580.44;5072518;28;20037;-76
2021/04/29 07:39:54;;;;;;;56.55;29.25;;;;;;;13.10;81.33;99607.41;5038618;28;20066;-77
2021/04/29 07:42:20;;;;;;;55.47;29.90;;;;;;;13.08;81.22;99604.00;5072284;28;20486;-74
2021/04/29 07:44:45;;;;;;;55.17;30.17;;;;;;;12.95;81.32;99592.59;5037943;28;20048;-75
2021/04/29 07:47:11;;;;;;;55.00;29.55;;;;;;;13.10;81.24;99612.75;5054902;28;20048;-72
2021/04/29 07:49:36;;;;;;;56.83;30.42;;;;;;;12.60;81.90;99539.22;5079603;28;20098;-72
2021/04/29 07:52:02;;;;;;;55.63;31.13;;;;;;;13.08;81.67;99614.72;5093370;28;20119;-72
2021/04/29 07:54:28;;;;;;;54.53;30.50;;;;;;;13.05;81.87;99620.31;5092437;28;20032;-72
2021/04/29 07:56:53;;;;;;;56.78;30.73;;;;;;;12.82;81.24;99565.09;5092265;28;20077;-70
2021/04/29 07:59:19;;;;;;;57.38;31.75;;;;;;;13.20;81.29;99612.03;5074256;28;20055;-80
2021/04/29 08:01:44;;;;;;;57.72;31.30;;;;;;;13.19;81.36;99616.56;5092769;28;20050;-74
2021/04/29 08:04:10;;;;;;;60.22;31.80;;;;;;;13.03;81.34;99573.25;5074775;28;20085;-77
2021/04/29 08:06:36;;;;;;;58.95;31.77;;;;;;;13.24;81.43;99610.84;5092352;28;20538;-80
2021/04/29 08:09:02;;;;;;;59.75;32.58;;;;;;;13.23;81.40;99601.09;5092668;28;20400;-74
2021/04/29 08:11:27;;;;;;;63.63;36.70;;;;;;;13.35;81.10;99594.75;5073235;28;20366;-75
2021/04/29 08:13:54;;;;;;;61.75;33.90;;;;;;;13.49;80.55;99602.47;5092244;28;20035;-76
2021/04/29 08:16:20;;;;;;;62.95;32.10;;;;;;;13.59;80.40;99607.94;5091832;28;20064;-76
2021/04/29 08:18:48;;;;;;;62.95;32.33;;;;;;;13.31;80.29;99547.75;5074360;28;20033;-76
2021/04/29 08:21:13;;;;;;;59.15;32.53;;;;;;;13.71;79.79;99597.06;5092157;28;20063;-79
2021/04/29 08:23:39;;;;;;;60.10;31.85;;;;;;;14.04;78.63;99587.16;5074152;28;20585;-79
2021/04/29 08:26:04;;;;;;;61.33;31.40;;;;;;;13.95;77.31;99526.25;5092237;28;20036;-76
2021/04/29 08:28:30;;;;;;;56.25;31.30;;;;;;;14.10;77.32;99559.81;5074308;28;20039;-77
2021/04/29 08:30:56;;;;;;;60.47;31.48;;;;;;;14.24;76.66;99551.41;5057627;28;20074;-76
2021/04/29 08:33:22;;;;;;;53.20;30.30;;;;;;;14.48;76.32;99563.75;5057376;28;20055;-76
2021/04/29 08:35:47;;;;;;;55.17;30.35;;;;;;;14.65;75.20;99565.78;5092574;28;20437;-78
2021/04/29 08:38:13;;;;;;;58.47;30.80;;;;;;;15.26;73.68;99568.38;5058006;28;20136;-75
2021/04/29 08:40:38;;;;;;;53.58;30.42;;;;;;;15.67;72.04;99570.00;5092355;28;20123;-77
2021/04/29 08:43:04;;;;;;;51.80;29.38;;;;;;;16.08;70.40;99573.38;5074214;28;20381;-72
2021/04/29 08:45:30;;;;;;;47.42;27.48;;;;;;;16.17;69.48;99558.22;5091832;28;20035;-72
2021/04/29 08:47:56;;;;;;;46.22;26.20;;;;;;;16.22;69.15;99570.25;5074295;28;20032;-72
2021/04/29 08:50:24;;;;;;;48.25;28.63;;;;;;;16.13;69.60;99575.66;5077955;28;20098;-75
2021/04/29 08:52:51;;;;;;;46.60;28.65;;;;;;;16.01;70.00;99574.94;5071837;28;20032;-76
2021/04/29 08:55:20;;;;;;;44.25;27.80;;;;;;;16.18;69.62;99578.75;5071891;28;20478;-76
2021/04/29 08:57:45;;;;;;;42.30;26.05;;;;;;;16.10;69.38;99575.91;5072477;28;20085;-75
2021/04/29 09:00:13;;;;;;;44.53;26.30;;;;;;;16.23;68.78;99571.94;5074082;28;20036;-74
2021/04/29 09:02:39;;;;;;;45.17;26.33;;;;;;;16.39;68.25;99579.41;5091778;28;20058;-73
2021/04/29 09:05:16;;;;;;;40.60;25.35;;;;;;;16.13;68.53;99554.13;5073700;28;20032;-80
2021/04/29 09:08:05;;;;;;;38.60;25.10;;;;;;;16.29;68.88;99574.03;5073947;28;20075;-78
2021/04/29 09:10:32;;;;;;;42.28;25.77;;;;;;;16.31;68.61;99573.91;5073932;28;20517;-78
2021/04/29 09:12:59;;;;;;;43.63;25.35;;;;;;;16.15;68.86;99574.50;5074045;28;20388;-78
2021/04/29 09:15:30;;;;;;;41.33;26.08;;;;;;;15.48;70.28;99518.91;5091907;28;20133;-78
2021/04/29 09:18:09;;;;;;;40.95;24.63;;;;;;;15.77;70.71;99570.00;5092160;28;20459;-78
2021/04/29 09:20:36;;;;;;;41.22;25.42;;;;;;;15.81;70.54;99568.72;5076190;28;20392;-78
2021/04/29 09:23:07;;;;;;;39.90;25.05;;;;;;;15.76;70.11;99533.38;5053979;28;20029;-79
2021/04/29 09:25:36;;;;;;;43.33;24.83;;;;;;;15.96;70.04;99569.16;5053603;28;20078;-79
2021/04/29 09:28:03;;;;;;;39.13;24.55;;;;;;;15.88;70.17;99551.03;5071301;28;20064;-81
2021/04/29 09:30:29;;;;;;;36.88;24.42;;;;;;;15.86;70.24;99541.41;5071212;28;20432;-77
2021/04/29 09:33:00;;;;;;;40.15;24.35;;;;;;;15.84;70.65;99527.28;5053625;28;20477;-74
2021/04/29 09:35:27;;;;;;;41.63;23.33;;;;;;;16.35;69.00;99556.47;5040249;28;20090;-74
2021/04/29 09:37:58;;;;;;;38.17;22.58;;;;;;;16.78;67.58;99536.22;5075361;28;20029;-76
2021/04/29 09:40:27;;;;;;;37.15;22.98;;;;;;;17.03;65.84;99522.06;5058290;28;20442;-78
2021/04/29 09:42:55;;;;;;;36.55;21.80;;;;;;;17.29;65.71;99521.31;5075135;28;20038;-77
2021/04/29 09:45:31;;;;;;;37.45;23.17;;;;;;;17.22;65.40;99517.53;5056740;28;20036;-77
2021/04/29 09:48:08;;;;;;;34.95;22.20;;;;;;;17.24;64.53;99491.28;5075195;28;20515;-77
2021/04/29 09:50:39;;;;;;;35.63;22.40;;;;;;;17.25;64.64;99477.63;5056821;28;20032;-76
2021/04/29 09:53:06;;;;;;;36.58;22.95;;;;;;;17.37;65.17;99527.66;5075081;28;20028;-77
2021/04/29 09:55:36;;;;;;;38.78;23.38;;;;;;;17.24;65.13;99529.00;5093589;28;20028;-75
2021/04/29 09:58:15;;;;;;;38.80;24.02;;;;;;;17.23;65.91;99535.41;5094848;28;20028;-78
2021/04/29 10:00:42;;;;;;;40.13;24.02;;;;;;;17.07;65.61;99509.97;5077080;28;20070;-79
2021/04/29 10:03:08;;;;;;;39.95;23.70;;;;;;;17.11;66.25;99532.91;5094934;28;20060;-79
2021/04/29 10:05:38;;;;;;;38.92;23.67;;;;;;;17.36;65.94;99527.78;5076095;28;20366;-78
2021/04/29 10:08:06;;;;;;;40.88;24.70;;;;;;;17.45;65.47;99524.16;5077501;28;20094;-74
2021/04/29 10:10:37;;;;;;;40.67;25.08;;;;;;;17.17;65.28;99462.22;5094548;28;20032;-75
2021/04/29 10:13:07;;;;;;;39.17;24.20;;;;;;;17.57;64.19;99481.66;5076698;28;20043;-76
2021/04/29 10:15:40;;;;;;;36.03;23.67;;;;;;;17.77;64.20;99514.72;5094292;28;20089;-75
2021/04/29 10:18:10;;;;;;;40.60;24.95;;;;;;;17.83;63.49;99462.84;5074176;28;20037;-75
2021/04/29 10:20:38;;;;;;;40.88;23.45;;;;;;;18.15;63.00;99514.34;5058482;28;20032;-75
2021/04/29 10:23:04;;;;;;;37.17;22.40;;;;;;;18.27;61.99;99513.06;5053663;28;20043;-76
2021/04/29 10:25:31;;;;;;;39.65;22.77;;;;;;;18.59;61.71;99515.09;5035922;28;20044;-76
2021/04/29 10:27:59;;;;;;;39.38;24.00;;;;;;;18.90;60.69;99511.88;5053356;28;20474;-75
2021/04/29 10:30:33;;;;;;;34.03;21.63;;;;;;;19.01;60.08;99505.31;5053284;28;20021;-81
2021/04/29 10:32:59;;;;;;;37.35;22.80;;;;;;;19.17;59.67;99513.47;5056799;28;20033;-76
2021/04/29 10:35:27;;;;;;;34.70;20.70;;;;;;;19.29;58.94;99514.00;5052877;28;20465;-79
2021/04/29 10:37:58;;;;;;;34.90;20.33;;;;;;;19.04;59.01;99522.06;5053738;28;20058;-81
2021/04/29 10:40:37;;;;;;;37.53;22.33;;;;;;;18.56;60.58;99498.38;5053475;28;20041;-75
2021/04/29 10:43:03;;;;;;;32.35;19.73;;;;;;;18.65;60.24;99520.91;5052822;28;20043;-81
2021/04/29 10:45:30;;;;;;;34.75;21.42;;;;;;;18.60;59.82;99486.22;5053017;28;20033;-78
2021/04/29 10:48:11;;;;;;;33.25;20.45;;;;;;;18.58;60.26;99509.84;5053903;28;20033;-78
2021/04/29 10:50:51;;;;;;;37.10;21.38;;;;;;;18.39;61.58;99510.94;5051797;28;20029;-79
2021/04/29 10:53:28;;;;;;;36.85;22.40;;;;;;;18.26;61.91;99519.47;5052284;28;20036;-80
2021/04/29 10:56:13;;;;;;;37.30;22.77;;;;;;;18.22;62.22;99519.94;5053402;28;20033;-76
2021/04/29 10:58:39;;;;;;;40.15;23.85;;;;;;;17.97;62.89;99497.34;5053547;28;20083;-76
2021/04/29 11:01:12;;;;;;;39.67;22.90;;;;;;;17.98;63.25;99501.72;5035853;28;20033;-80
2021/04/29 11:03:50;;;;;;;36.25;23.30;;;;;;;18.01;63.33;99501.41;5053372;28;20037;-80
2021/04/29 11:06:19;;;;;;;41.60;23.17;;;;;;;17.94;63.46;99505.72;5053402;28;20028;-76
2021/04/29 11:08:50;;;;;;;34.58;21.83;;;;;;;18.03;63.43;99516.44;5053438;28;20029;-79
2021/04/29 11:11:29;;;;;;;38.75;21.58;;;;;;;17.98;63.72;99518.78;5053568;28;20067;-79
2021/04/29 11:14:12;;;;;;;37.38;22.50;;;;;;;17.92;64.16;99502.34;5053025;28;20033;-75
2021/04/29 11:16:47;;;;;;;31.83;20.17;;;;;;;18.08;62.93;99510.56;5054813;28;20044;-78